Westwood, Ohio
Current Conditions -  °F | °C
As of 9:58 PM on Thursday 27 Nov 2014 (Local Time) from KI69 Reporting Station
Light Snow Light Snow  
Wind Chill: 21°   Ceiling: 2700
Heat Index: 30°   Visibility: 10mi
Dew Point: 21°   Wind: 12mph
Humidity: 69%   Direction: 320°NW
Pressure: 30.38"   Gusts: NA
Location:  39.1663°N, 84.6602°W
Report Text: KI69 280258Z AUTO 32010KT 10SM -SN BKN027 OVC035 M01/M06 A3038 RMK AO1
Loading
Personal Weather Stations






























Interactive Weather Map New forecast layout! Learn more

10-Day Weather Forecast

Advertisements
Track Severe Weather on mobile